Terminal Aerodrome Forecast
Issued by NWS Twin Cities, MN

Home | Current Version | Previous Version | Graphics & Text | Print | Product List | Glossary On
Versions: 1 2 3 4 5 6 7 8 9 10 11 12 13 14 15 16 17 18 19
000
FTUS43 KMPX 270303 AAA
TAFEAU
TAF AMD
KEAU 270303Z 2703/2724 00000KT 5SM BR OVC015
     FM270800 32003KT 5SM BR OVC009
     FM271600 VRB03KT P6SM FEW015 SCT100 BKN250
     FM271800 15005KT P6SM BKN250=

USA.gov is the U.S. government's official web portal to all federal, state and local government web resources and services.